FYI1648 LIPE-LFPG
Flight info
| Callsign | FYI1648 |
|---|---|
| Flight time | 1h 21m |
| Altitude | 34000 |
| Route | LUPOS DCT EVKIV DCT EKPAL DCT SRN DCT CERVI DCT MOLUS DCT UNKIR DCT GIVRI DCT TINIL |
| Aircraft | A320/M-SDE3FGHIRWY/LB1 |
Departure
| Time | 2026-05-01 08:57 |
|---|---|
| Airport | Bologna Guglielmo Marconi Airport (LIPE) |
Arrival
| Time | 2026-05-01 10:18 |
|---|---|
| Airport | Charles de Gaulle International Airport (LFPG) |
| Time | Latitude | Longitude | Altitude | Speed | Heading |
|---|---|---|---|---|---|
| 2026-05-01 08:40 | 44.53057 | 11.29378 | 130 ft | 0 kts | 207° |
| 2026-05-01 08:49 | 44.53060 | 11.29381 | 130 ft | 3 kts | 207° |
| 2026-05-01 08:49 | 44.53081 | 11.29396 | 125 ft | 2 kts | 203° |
| 2026-05-01 08:49 | 44.53100 | 11.29401 | 127 ft | 4 kts | 140° |
| 2026-05-01 08:50 | 44.53112 | 11.29380 | 129 ft | 0 kts | 117° |
| 2026-05-01 08:50 | 44.53100 | 11.29412 | 126 ft | 4 kts | 117° |
| 2026-05-01 08:50 | 44.53088 | 11.29445 | 126 ft | 3 kts | 116° |
| 2026-05-01 08:50 | 44.53086 | 11.29451 | 126 ft | 0 kts | 116° |
| 2026-05-01 08:53 | 44.53086 | 11.29452 | 126 ft | 1 kts | 116° |
| 2026-05-01 08:53 | 44.53062 | 11.29520 | 130 ft | 9 kts | 114° |
| 2026-05-01 08:53 | 44.53079 | 11.29591 | 130 ft | 7 kts | 76° |
| 2026-05-01 08:53 | 44.53062 | 11.29660 | 130 ft | 13 kts | 117° |
| 2026-05-01 08:54 | 44.53010 | 11.29803 | 128 ft | 17 kts | 117° |
| 2026-05-01 08:54 | 44.52954 | 11.29959 | 127 ft | 19 kts | 117° |
| 2026-05-01 08:54 | 44.52893 | 11.30127 | 129 ft | 20 kts | 117° |
| 2026-05-01 08:54 | 44.52872 | 11.30220 | 130 ft | 5 kts | 93° |
| 2026-05-01 08:55 | 44.52873 | 11.30268 | 130 ft | 5 kts | 81° |
| 2026-05-01 08:55 | 44.52900 | 11.30309 | 127 ft | 8 kts | 28° |
| 2026-05-01 08:55 | 44.52954 | 11.30344 | 127 ft | 11 kts | 13° |
| 2026-05-01 08:55 | 44.53035 | 11.30279 | 126 ft | 16 kts | 296° |
| 2026-05-01 08:56 | 44.53066 | 11.30194 | 124 ft | 0 kts | 297° |
| 2026-05-01 08:56 | 44.53182 | 11.29873 | 124 ft | 75 kts | 297° |
| 2026-05-01 08:56 | 44.53509 | 11.28966 | 125 ft | 134 kts | 297° |
| 2026-05-01 08:57 | 44.53981 | 11.27629 | 401 ft | 157 kts | 296° |
| 2026-05-01 08:57 | 44.54472 | 11.26278 | 1187 ft | 155 kts | 297° |
| 2026-05-01 08:57 | 44.54974 | 11.24908 | 1746 ft | 162 kts | 299° |
| 2026-05-01 08:57 | 44.55517 | 11.23434 | 2207 ft | 178 kts | 300° |
| 2026-05-01 08:58 | 44.56109 | 11.21819 | 2697 ft | 194 kts | 298° |
| 2026-05-01 08:58 | 44.56757 | 11.20012 | 3100 ft | 214 kts | 298° |
| 2026-05-01 08:58 | 44.57472 | 11.18021 | 3301 ft | 246 kts | 298° |
| 2026-05-01 08:58 | 44.58241 | 11.15888 | 4218 ft | 244 kts | 298° |
| 2026-05-01 08:59 | 44.59012 | 11.13731 | 4993 ft | 252 kts | 299° |
| 2026-05-01 08:59 | 44.59798 | 11.11521 | 5717 ft | 260 kts | 299° |
| 2026-05-01 08:59 | 44.60599 | 11.09246 | 6663 ft | 259 kts | 300° |
| 2026-05-01 08:59 | 44.61394 | 11.06975 | 7554 ft | 259 kts | 300° |
| 2026-05-01 09:00 | 44.62182 | 11.04686 | 8382 ft | 263 kts | 300° |
| 2026-05-01 09:00 | 44.62883 | 11.02294 | 9223 ft | 269 kts | 289° |
| 2026-05-01 09:00 | 44.63028 | 10.99631 | 10030 ft | 282 kts | 267° |
| 2026-05-01 09:00 | 44.62426 | 10.96964 | 10736 ft | 294 kts | 242° |
| 2026-05-01 09:01 | 44.61318 | 10.94521 | 11464 ft | 298 kts | 241° |
| 2026-05-01 09:01 | 44.60248 | 10.92019 | 12218 ft | 300 kts | 243° |
| 2026-05-01 09:01 | 44.59187 | 10.89476 | 12956 ft | 304 kts | 243° |
| 2026-05-01 09:01 | 44.58098 | 10.86916 | 13691 ft | 308 kts | 242° |
| 2026-05-01 09:02 | 44.56970 | 10.84343 | 14386 ft | 311 kts | 242° |
| 2026-05-01 09:02 | 44.55808 | 10.81761 | 15014 ft | 315 kts | 241° |
| 2026-05-01 09:02 | 44.54617 | 10.79157 | 15649 ft | 319 kts | 240° |
| 2026-05-01 09:02 | 44.53406 | 10.76538 | 16282 ft | 322 kts | 240° |
| 2026-05-01 09:03 | 44.52196 | 10.73877 | 16913 ft | 325 kts | 245° |
| 2026-05-01 09:03 | 44.51295 | 10.70983 | 17418 ft | 328 kts | 259° |
| 2026-05-01 09:03 | 44.50930 | 10.67779 | 17558 ft | 341 kts | 272° |
| 2026-05-01 09:03 | 44.50782 | 10.64359 | 17694 ft | 361 kts | 272° |
| 2026-05-01 09:04 | 44.50622 | 10.60760 | 17829 ft | 379 kts | 271° |
| 2026-05-01 09:04 | 44.50447 | 10.57000 | 18047 ft | 393 kts | 271° |
| 2026-05-01 09:04 | 44.50262 | 10.53152 | 18558 ft | 398 kts | 271° |
| 2026-05-01 09:04 | 44.50072 | 10.49263 | 19046 ft | 403 kts | 271° |
| 2026-05-01 09:05 | 44.49875 | 10.45331 | 19507 ft | 407 kts | 270° |
| 2026-05-01 09:05 | 44.49675 | 10.41358 | 20004 ft | 411 kts | 271° |
| 2026-05-01 09:05 | 44.49473 | 10.37346 | 20487 ft | 415 kts | 270° |
| 2026-05-01 09:05 | 44.49272 | 10.33298 | 20960 ft | 419 kts | 271° |
| 2026-05-01 09:06 | 44.49066 | 10.29206 | 21435 ft | 423 kts | 271° |
| 2026-05-01 09:06 | 44.48996 | 10.25091 | 21901 ft | 422 kts | 279° |
| 2026-05-01 09:06 | 44.49475 | 10.21063 | 22326 ft | 417 kts | 292° |
| 2026-05-01 09:06 | 44.50515 | 10.17312 | 22790 ft | 411 kts | 304° |
| 2026-05-01 09:07 | 44.52038 | 10.13967 | 23271 ft | 405 kts | 315° |
| 2026-05-01 09:07 | 44.53955 | 10.11127 | 23735 ft | 399 kts | 326° |
| 2026-05-01 09:07 | 44.56170 | 10.08821 | 24134 ft | 397 kts | 332° |
| 2026-05-01 09:07 | 44.58456 | 10.06636 | 24525 ft | 399 kts | 332° |
| 2026-05-01 09:08 | 44.60754 | 10.04436 | 24932 ft | 401 kts | 332° |
| 2026-05-01 09:08 | 44.63064 | 10.02218 | 25334 ft | 403 kts | 332° |
| 2026-05-01 09:08 | 44.65375 | 9.99985 | 25727 ft | 405 kts | 331° |
| 2026-05-01 09:08 | 44.67697 | 9.97734 | 26117 ft | 406 kts | 331° |
| 2026-05-01 09:09 | 44.70028 | 9.95472 | 26500 ft | 408 kts | 331° |
| 2026-05-01 09:09 | 44.71576 | 9.93971 | 26742 ft | 409 kts | 331° |
| 2026-05-01 09:09 | 44.74719 | 9.90924 | 27242 ft | 411 kts | 332° |
| 2026-05-01 09:09 | 44.76283 | 9.89411 | 27450 ft | 412 kts | 331° |
| 2026-05-01 09:10 | 44.78652 | 9.87118 | 27757 ft | 415 kts | 330° |
| 2026-05-01 09:10 | 44.81042 | 9.84806 | 28107 ft | 418 kts | 330° |
| 2026-05-01 09:10 | 44.83440 | 9.82484 | 28461 ft | 420 kts | 330° |
| 2026-05-01 09:10 | 44.85848 | 9.80144 | 28803 ft | 421 kts | 330° |
| 2026-05-01 09:11 | 44.88267 | 9.77792 | 29145 ft | 423 kts | 330° |
| 2026-05-01 09:11 | 44.90695 | 9.75426 | 29479 ft | 425 kts | 330° |
| 2026-05-01 09:11 | 44.93130 | 9.73049 | 29799 ft | 427 kts | 330° |
| 2026-05-01 09:11 | 44.95576 | 9.70658 | 30110 ft | 428 kts | 330° |
| 2026-05-01 09:12 | 44.98027 | 9.68257 | 30415 ft | 430 kts | 330° |
| 2026-05-01 09:12 | 45.00477 | 9.65852 | 30669 ft | 432 kts | 330° |
| 2026-05-01 09:12 | 45.02953 | 9.63420 | 30911 ft | 434 kts | 330° |
| 2026-05-01 09:12 | 45.05437 | 9.60981 | 31120 ft | 436 kts | 329° |
| 2026-05-01 09:13 | 45.07927 | 9.58533 | 31398 ft | 436 kts | 329° |
| 2026-05-01 09:13 | 45.10422 | 9.56081 | 31700 ft | 436 kts | 329° |
| 2026-05-01 09:13 | 45.12914 | 9.53633 | 32027 ft | 436 kts | 329° |
| 2026-05-01 09:13 | 45.15404 | 9.51181 | 32352 ft | 436 kts | 329° |
| 2026-05-01 09:14 | 45.17889 | 9.48731 | 32680 ft | 435 kts | 329° |
| 2026-05-01 09:14 | 45.20373 | 9.46280 | 33018 ft | 434 kts | 330° |
| 2026-05-01 09:14 | 45.22851 | 9.43831 | 33347 ft | 434 kts | 330° |
| 2026-05-01 09:14 | 45.25323 | 9.41382 | 33677 ft | 433 kts | 330° |
| 2026-05-01 09:15 | 45.27758 | 9.38972 | 33990 ft | 432 kts | 330° |
| 2026-05-01 09:15 | 45.30225 | 9.36530 | 34339 ft | 433 kts | 330° |
| 2026-05-01 09:15 | 45.35129 | 9.31651 | 34376 ft | 428 kts | 329° |
| 2026-05-01 09:16 | 45.39996 | 9.26803 | 34409 ft | 429 kts | 329° |
| 2026-05-01 09:17 | 45.47342 | 9.19482 | 34410 ft | 430 kts | 329° |
| 2026-05-01 09:17 | 45.54684 | 9.12129 | 34410 ft | 430 kts | 329° |
| 2026-05-01 09:18 | 45.61905 | 9.04531 | 34411 ft | 434 kts | 320° |
| 2026-05-01 09:19 | 45.65488 | 8.97504 | 34386 ft | 444 kts | 299° |
| 2026-05-01 09:19 | 45.66612 | 8.93371 | 34389 ft | 448 kts | 291° |
| 2026-05-01 09:20 | 45.69473 | 8.80632 | 34388 ft | 449 kts | 291° |
| 2026-05-01 09:21 | 45.73273 | 8.63671 | 34373 ft | 449 kts | 290° |
| 2026-05-01 09:21 | 45.76111 | 8.50902 | 34405 ft | 448 kts | 290° |
| 2026-05-01 09:22 | 45.79875 | 8.33877 | 34394 ft | 448 kts | 290° |
| 2026-05-01 09:23 | 45.82684 | 8.21111 | 34378 ft | 448 kts | 289° |
| 2026-05-01 09:24 | 45.85461 | 8.08329 | 34358 ft | 448 kts | 289° |
| 2026-05-01 09:25 | 45.89157 | 7.91254 | 34348 ft | 448 kts | 289° |
| 2026-05-01 09:26 | 45.91919 | 7.78423 | 34332 ft | 448 kts | 288° |
| 2026-05-01 09:26 | 45.94661 | 7.65578 | 34327 ft | 448 kts | 288° |
| 2026-05-01 09:27 | 45.97997 | 7.53097 | 34318 ft | 445 kts | 303° |
| 2026-05-01 09:28 | 46.01737 | 7.46026 | 34293 ft | 444 kts | 310° |
| 2026-05-01 09:28 | 46.05593 | 7.39076 | 34289 ft | 444 kts | 309° |
| 2026-05-01 09:29 | 46.11351 | 7.28609 | 34286 ft | 445 kts | 309° |
| 2026-05-01 09:30 | 46.17117 | 7.18126 | 34282 ft | 445 kts | 310° |
| 2026-05-01 09:30 | 46.22884 | 7.07592 | 34280 ft | 447 kts | 309° |
| 2026-05-01 09:31 | 46.26730 | 7.00551 | 34283 ft | 447 kts | 309° |
| 2026-05-01 09:32 | 46.32499 | 6.89949 | 34290 ft | 447 kts | 309° |
| 2026-05-01 09:32 | 46.38262 | 6.79310 | 34293 ft | 448 kts | 308° |
| 2026-05-01 09:33 | 46.42105 | 6.72201 | 34291 ft | 449 kts | 308° |
| 2026-05-01 09:34 | 46.47209 | 6.60836 | 34312 ft | 450 kts | 300° |
| 2026-05-01 09:34 | 46.51886 | 6.49017 | 34311 ft | 450 kts | 300° |
| 2026-05-01 09:35 | 46.56542 | 6.37206 | 34295 ft | 453 kts | 299° |
| 2026-05-01 09:36 | 46.59660 | 6.29234 | 34276 ft | 454 kts | 299° |
| 2026-05-01 09:36 | 46.62778 | 6.21234 | 34281 ft | 455 kts | 299° |
| 2026-05-01 09:37 | 46.65909 | 6.13215 | 34276 ft | 456 kts | 299° |
| 2026-05-01 09:37 | 46.70597 | 6.01142 | 34279 ft | 458 kts | 298° |
| 2026-05-01 09:38 | 46.75290 | 5.89002 | 34266 ft | 459 kts | 298° |
| 2026-05-01 09:39 | 46.80126 | 5.76938 | 34261 ft | 460 kts | 306° |
| 2026-05-01 09:39 | 46.84694 | 5.70416 | 34268 ft | 461 kts | 325° |
| 2026-05-01 09:40 | 46.93086 | 5.63479 | 34253 ft | 464 kts | 331° |
| 2026-05-01 09:41 | 46.98743 | 5.58928 | 34255 ft | 465 kts | 331° |
| 2026-05-01 09:41 | 47.07243 | 5.52043 | 34259 ft | 465 kts | 331° |
| 2026-05-01 09:42 | 47.12908 | 5.47453 | 34261 ft | 465 kts | 331° |
| 2026-05-01 09:43 | 47.24234 | 5.38280 | 34272 ft | 465 kts | 331° |
| 2026-05-01 09:43 | 47.29900 | 5.33666 | 34258 ft | 466 kts | 331° |
| 2026-05-01 09:44 | 47.38418 | 5.26705 | 34253 ft | 467 kts | 331° |
| 2026-05-01 09:45 | 47.44104 | 5.22038 | 34259 ft | 468 kts | 331° |
| 2026-05-01 09:45 | 47.52678 | 5.14975 | 33614 ft | 479 kts | 331° |
| 2026-05-01 09:46 | 47.55622 | 5.12550 | 32489 ft | 487 kts | 331° |
| 2026-05-01 09:46 | 47.58531 | 5.10036 | 31875 ft | 482 kts | 326° |
| 2026-05-01 09:46 | 47.61168 | 5.07023 | 31277 ft | 477 kts | 320° |
| 2026-05-01 09:46 | 47.63693 | 5.03851 | 30664 ft | 473 kts | 320° |
| 2026-05-01 09:47 | 47.66196 | 5.00710 | 30005 ft | 470 kts | 320° |
| 2026-05-01 09:47 | 47.68674 | 4.97597 | 29422 ft | 464 kts | 320° |
| 2026-05-01 09:47 | 47.71128 | 4.94512 | 28829 ft | 459 kts | 320° |
| 2026-05-01 09:47 | 47.73549 | 4.91464 | 28264 ft | 454 kts | 320° |
| 2026-05-01 09:48 | 47.75938 | 4.88447 | 27941 ft | 446 kts | 320° |
| 2026-05-01 09:48 | 47.78287 | 4.85475 | 27662 ft | 442 kts | 320° |
| 2026-05-01 09:48 | 47.80616 | 4.82524 | 27366 ft | 439 kts | 320° |
| 2026-05-01 09:48 | 47.82935 | 4.79582 | 27065 ft | 437 kts | 320° |
| 2026-05-01 09:49 | 47.85239 | 4.76650 | 26781 ft | 435 kts | 320° |
| 2026-05-01 09:49 | 47.87533 | 4.73723 | 26492 ft | 433 kts | 319° |
| 2026-05-01 09:49 | 47.89816 | 4.70806 | 26198 ft | 431 kts | 319° |
| 2026-05-01 09:49 | 47.92087 | 4.67902 | 25900 ft | 430 kts | 319° |
| 2026-05-01 09:50 | 47.94321 | 4.65048 | 25634 ft | 428 kts | 319° |
| 2026-05-01 09:50 | 47.96580 | 4.62163 | 25335 ft | 428 kts | 319° |
| 2026-05-01 09:50 | 47.98841 | 4.59278 | 25055 ft | 427 kts | 319° |
| 2026-05-01 09:50 | 48.01093 | 4.56396 | 24782 ft | 425 kts | 319° |
| 2026-05-01 09:51 | 48.03334 | 4.53525 | 24484 ft | 424 kts | 319° |
| 2026-05-01 09:51 | 48.05565 | 4.50657 | 24202 ft | 422 kts | 319° |
| 2026-05-01 09:51 | 48.07785 | 4.47794 | 23919 ft | 421 kts | 319° |
| 2026-05-01 09:51 | 48.09997 | 4.44933 | 23610 ft | 419 kts | 319° |
| 2026-05-01 09:52 | 48.12195 | 4.42085 | 23330 ft | 417 kts | 319° |
| 2026-05-01 09:52 | 48.14385 | 4.39251 | 23058 ft | 415 kts | 319° |
| 2026-05-01 09:52 | 48.16564 | 4.36437 | 22778 ft | 412 kts | 319° |
| 2026-05-01 09:52 | 48.18729 | 4.33639 | 22503 ft | 410 kts | 319° |
| 2026-05-01 09:53 | 48.20883 | 4.30845 | 22233 ft | 408 kts | 319° |
| 2026-05-01 09:53 | 48.23023 | 4.28064 | 21966 ft | 406 kts | 319° |
| 2026-05-01 09:53 | 48.25152 | 4.25291 | 21693 ft | 406 kts | 318° |
| 2026-05-01 09:53 | 48.27119 | 4.22271 | 21422 ft | 404 kts | 308° |
| 2026-05-01 09:54 | 48.28896 | 4.19025 | 21154 ft | 402 kts | 308° |
| 2026-05-01 09:54 | 48.30672 | 4.15787 | 20894 ft | 400 kts | 308° |
| 2026-05-01 09:54 | 48.32440 | 4.12570 | 20626 ft | 398 kts | 308° |
| 2026-05-01 09:54 | 48.34201 | 4.09364 | 20347 ft | 397 kts | 308° |
| 2026-05-01 09:55 | 48.35951 | 4.06174 | 20033 ft | 395 kts | 308° |
| 2026-05-01 09:55 | 48.37692 | 4.03001 | 19661 ft | 391 kts | 308° |
| 2026-05-01 09:55 | 48.39413 | 3.99856 | 19306 ft | 388 kts | 308° |
| 2026-05-01 09:55 | 48.41123 | 3.96730 | 18952 ft | 385 kts | 308° |
| 2026-05-01 09:56 | 48.42817 | 3.93626 | 18591 ft | 383 kts | 308° |
| 2026-05-01 09:56 | 48.44502 | 3.90534 | 18210 ft | 380 kts | 308° |
| 2026-05-01 09:56 | 48.46173 | 3.87461 | 17868 ft | 378 kts | 308° |
| 2026-05-01 09:56 | 48.47840 | 3.84402 | 17521 ft | 376 kts | 308° |
| 2026-05-01 09:57 | 48.49503 | 3.81369 | 17183 ft | 374 kts | 308° |
| 2026-05-01 09:57 | 48.50593 | 3.79363 | 16959 ft | 373 kts | 308° |
| 2026-05-01 09:57 | 48.52224 | 3.76337 | 16622 ft | 371 kts | 308° |
| 2026-05-01 09:57 | 48.53833 | 3.73303 | 16257 ft | 368 kts | 305° |
| 2026-05-01 09:58 | 48.55231 | 3.70096 | 16052 ft | 366 kts | 301° |
| 2026-05-01 09:58 | 48.56610 | 3.66867 | 15866 ft | 366 kts | 302° |
| 2026-05-01 09:58 | 48.57990 | 3.63644 | 15685 ft | 365 kts | 302° |
| 2026-05-01 09:58 | 48.59368 | 3.60429 | 15490 ft | 364 kts | 302° |
| 2026-05-01 09:59 | 48.60742 | 3.57226 | 15306 ft | 363 kts | 302° |
| 2026-05-01 09:59 | 48.62115 | 3.54029 | 15079 ft | 362 kts | 302° |
| 2026-05-01 09:59 | 48.63473 | 3.50837 | 14817 ft | 360 kts | 301° |
| 2026-05-01 09:59 | 48.64826 | 3.47641 | 14569 ft | 368 kts | 301° |
| 2026-05-01 10:00 | 48.66240 | 3.44316 | 14313 ft | 382 kts | 302° |
| 2026-05-01 10:00 | 48.67688 | 3.40930 | 14052 ft | 383 kts | 302° |
| 2026-05-01 10:00 | 48.69137 | 3.37551 | 13765 ft | 382 kts | 302° |
| 2026-05-01 10:00 | 48.70579 | 3.34179 | 13472 ft | 381 kts | 302° |
| 2026-05-01 10:01 | 48.72010 | 3.30824 | 13254 ft | 378 kts | 302° |
| 2026-05-01 10:01 | 48.73424 | 3.27500 | 13246 ft | 368 kts | 301° |
| 2026-05-01 10:01 | 48.74780 | 3.24308 | 13252 ft | 355 kts | 301° |
| 2026-05-01 10:01 | 48.76106 | 3.21182 | 13255 ft | 351 kts | 301° |
| 2026-05-01 10:02 | 48.77424 | 3.18070 | 13255 ft | 351 kts | 301° |
| 2026-05-01 10:02 | 48.78788 | 3.15006 | 13254 ft | 351 kts | 305° |
| 2026-05-01 10:02 | 48.80258 | 3.12051 | 13247 ft | 351 kts | 307° |
| 2026-05-01 10:02 | 48.81762 | 3.09131 | 13246 ft | 351 kts | 307° |
| 2026-05-01 10:03 | 48.83281 | 3.06228 | 13247 ft | 351 kts | 307° |
| 2026-05-01 10:03 | 48.84802 | 3.03332 | 13250 ft | 352 kts | 307° |
| 2026-05-01 10:03 | 48.86323 | 3.00422 | 13245 ft | 351 kts | 307° |
| 2026-05-01 10:03 | 48.87835 | 2.97506 | 13248 ft | 352 kts | 307° |
| 2026-05-01 10:04 | 48.89345 | 2.94579 | 13246 ft | 352 kts | 307° |
| 2026-05-01 10:04 | 48.90851 | 2.91654 | 13248 ft | 352 kts | 307° |
| 2026-05-01 10:04 | 48.92176 | 2.88545 | 13250 ft | 350 kts | 295° |
| 2026-05-01 10:04 | 48.93041 | 2.85108 | 13248 ft | 348 kts | 282° |
| 2026-05-01 10:05 | 48.93428 | 2.81496 | 13246 ft | 345 kts | 270° |
| 2026-05-01 10:05 | 48.93354 | 2.77865 | 13245 ft | 343 kts | 263° |
| 2026-05-01 10:05 | 48.93159 | 2.74247 | 13246 ft | 343 kts | 263° |
| 2026-05-01 10:05 | 48.92968 | 2.70631 | 13246 ft | 343 kts | 263° |
| 2026-05-01 10:06 | 48.92780 | 2.67062 | 13243 ft | 340 kts | 263° |
| 2026-05-01 10:06 | 48.92595 | 2.63524 | 13241 ft | 321 kts | 263° |
| 2026-05-01 10:06 | 48.92421 | 2.60235 | 13250 ft | 313 kts | 262° |
| 2026-05-01 10:06 | 48.92239 | 2.56901 | 13248 ft | 312 kts | 262° |
| 2026-05-01 10:07 | 48.92054 | 2.53613 | 13184 ft | 313 kts | 262° |
| 2026-05-01 10:07 | 48.91865 | 2.50293 | 12580 ft | 313 kts | 262° |
| 2026-05-01 10:07 | 48.91687 | 2.47042 | 12096 ft | 305 kts | 263° |
| 2026-05-01 10:07 | 48.91516 | 2.43900 | 11547 ft | 300 kts | 263° |
| 2026-05-01 10:08 | 48.91175 | 2.37662 | 10407 ft | 293 kts | 263° |
| 2026-05-01 10:08 | 48.91003 | 2.34596 | 9800 ft | 290 kts | 263° |
| 2026-05-01 10:08 | 48.90828 | 2.31526 | 9055 ft | 292 kts | 263° |
| 2026-05-01 10:09 | 48.90652 | 2.28475 | 8389 ft | 289 kts | 263° |
| 2026-05-01 10:09 | 48.90479 | 2.25451 | 7741 ft | 286 kts | 263° |
| 2026-05-01 10:09 | 48.90309 | 2.22458 | 7138 ft | 282 kts | 263° |
| 2026-05-01 10:09 | 48.90138 | 2.19487 | 6521 ft | 280 kts | 263° |
| 2026-05-01 10:10 | 48.90006 | 2.16633 | 6344 ft | 260 kts | 270° |
| 2026-05-01 10:10 | 48.90473 | 2.14086 | 6137 ft | 248 kts | 300° |
| 2026-05-01 10:10 | 48.93271 | 2.11700 | 5479 ft | 233 kts | 358° |
| 2026-05-01 10:11 | 48.94863 | 2.11669 | 5224 ft | 224 kts | 1° |
| 2026-05-01 10:11 | 48.96389 | 2.11735 | 5140 ft | 215 kts | 5° |
| 2026-05-01 10:11 | 48.97745 | 2.12489 | 5032 ft | 206 kts | 43° |
| 2026-05-01 10:11 | 48.98649 | 2.14119 | 5023 ft | 202 kts | 59° |
| 2026-05-01 10:12 | 48.99263 | 2.16008 | 5011 ft | 198 kts | 79° |
| 2026-05-01 10:12 | 48.99545 | 2.18056 | 5006 ft | 196 kts | 89° |
| 2026-05-01 10:12 | 48.98711 | 2.21829 | 4717 ft | 192 kts | 118° |
| 2026-05-01 10:13 | 48.98144 | 2.23678 | 4498 ft | 193 kts | 116° |
| 2026-05-01 10:13 | 48.97784 | 2.25662 | 4261 ft | 198 kts | 98° |
| 2026-05-01 10:13 | 48.97745 | 2.27769 | 4022 ft | 201 kts | 90° |
| 2026-05-01 10:14 | 48.97945 | 2.32088 | 3496 ft | 204 kts | 88° |
| 2026-05-01 10:14 | 48.98064 | 2.34204 | 3237 ft | 199 kts | 87° |
| 2026-05-01 10:14 | 48.98179 | 2.36280 | 2964 ft | 197 kts | 88° |
| 2026-05-01 10:14 | 48.98294 | 2.38351 | 2690 ft | 196 kts | 86° |
| 2026-05-01 10:15 | 48.98406 | 2.40367 | 2441 ft | 191 kts | 87° |
| 2026-05-01 10:15 | 48.98515 | 2.42316 | 2195 ft | 177 kts | 86° |
| 2026-05-01 10:15 | 48.98613 | 2.44086 | 1960 ft | 161 kts | 87° |
| 2026-05-01 10:15 | 48.98703 | 2.45738 | 1761 ft | 154 kts | 88° |
| 2026-05-01 10:16 | 48.98792 | 2.47357 | 1553 ft | 150 kts | 87° |
| 2026-05-01 10:16 | 48.98878 | 2.48937 | 1370 ft | 149 kts | 88° |
| 2026-05-01 10:16 | 48.99041 | 2.52002 | 1002 ft | 144 kts | 88° |
| 2026-05-01 10:17 | 48.99126 | 2.53513 | 808 ft | 142 kts | 86° |
| 2026-05-01 10:17 | 48.99290 | 2.56453 | 427 ft | 138 kts | 87° |
| 2026-05-01 10:17 | 48.99371 | 2.57863 | 355 ft | 124 kts | 86° |
| 2026-05-01 10:18 | 48.99446 | 2.59466 | 352 ft | 30 kts | 85° |
| 2026-05-01 10:18 | 48.99469 | 2.59775 | 353 ft | 29 kts | 75° |
| 2026-05-01 10:18 | 48.99573 | 2.59975 | 361 ft | 22 kts | 17° |
| 2026-05-01 10:19 | 48.99597 | 2.59980 | 356 ft | 0 kts | 3° |
| 2026-05-01 10:19 | 48.99607 | 2.59980 | 354 ft | 3 kts | 358° |
| 2026-05-01 10:19 | 48.99624 | 2.59979 | 358 ft | 5 kts | 357° |
| 2026-05-01 10:20 | 48.99810 | 2.59957 | 358 ft | 12 kts | 355° |
| 2026-05-01 10:20 | 48.99891 | 2.59987 | 360 ft | 13 kts | 43° |
| 2026-05-01 10:20 | 48.99952 | 2.60072 | 359 ft | 11 kts | 16° |
| 2026-05-01 10:20 | 49.00017 | 2.60031 | 357 ft | 10 kts | 321° |
| 2026-05-01 10:21 | 49.00074 | 2.59988 | 357 ft | 9 kts | 339° |
| 2026-05-01 10:21 | 49.00093 | 2.59854 | 354 ft | 6 kts | 265° |
| 2026-05-01 10:21 | 49.00090 | 2.59799 | 356 ft | 5 kts | 265° |
| 2026-05-01 10:22 | 49.00086 | 2.59731 | 358 ft | 2 kts | 265° |
| 2026-05-01 10:22 | 49.00085 | 2.59710 | 360 ft | 3 kts | 266° |
| 2026-05-01 10:23 | 49.00084 | 2.59684 | 354 ft | 2 kts | 266° |
| 2026-05-01 10:23 | 49.00072 | 2.59467 | 354 ft | 14 kts | 265° |
| 2026-05-01 10:23 | 49.00063 | 2.59299 | 354 ft | 18 kts | 265° |
| 2026-05-01 10:24 | 49.00041 | 2.58892 | 354 ft | 20 kts | 265° |
| 2026-05-01 10:24 | 49.00018 | 2.58428 | 354 ft | 24 kts | 265° |
| 2026-05-01 10:25 | 48.99993 | 2.57980 | 354 ft | 22 kts | 265° |
| 2026-05-01 10:25 | 48.99965 | 2.57477 | 354 ft | 26 kts | 265° |
| 2026-05-01 10:26 | 48.99951 | 2.57219 | 354 ft | 19 kts | 266° |
| 2026-05-01 10:26 | 48.99940 | 2.57015 | 356 ft | 20 kts | 265° |
| 2026-05-01 10:26 | 48.99917 | 2.56581 | 358 ft | 21 kts | 265° |
| 2026-05-01 10:27 | 48.99895 | 2.56135 | 354 ft | 19 kts | 264° |
| 2026-05-01 10:27 | 48.99929 | 2.55740 | 354 ft | 19 kts | 296° |
| 2026-05-01 10:28 | 49.00036 | 2.55650 | 360 ft | 19 kts | 345° |
| 2026-05-01 10:28 | 49.00325 | 2.55523 | 356 ft | 13 kts | 343° |
| 2026-05-01 10:28 | 49.00405 | 2.55488 | 357 ft | 11 kts | 345° |
| 2026-05-01 10:29 | 49.00559 | 2.55653 | 354 ft | 22 kts | 85° |
| 2026-05-01 10:29 | 49.00587 | 2.55720 | 364 ft | 0 kts | 28° |
| 2026-05-01 10:31 | 49.00680 | 2.55997 | 359 ft | 0 kts | 356° |
| 2026-05-01 10:31 | 49.00683 | 2.55997 | 359 ft | 0 kts | 356° |